Terminal Aerodrome Forecast
Issued by NWS Jacksonville, FL

Home | Current Version | Previous Version | Text Only | Print | Product List | Glossary On
Versions: 1 2 3 4 5 6 7 8 9 10 11 12 13 14 15 16 17 18 19 20 21 22 23
000
FTUS42 KJAX 311120
TAFGNV
TAF
KGNV 311120Z 3112/0112 21005KT P6SM SCT015 BKN120
      TEMPO 3112/3114 OVC008
     FM311800 20007KT P6SM VCTS SCT025CB BKN040
      TEMPO 3120/3122 3SM TSRA BKN025CB
     FM010000 20004KT P6SM SCT020 BKN100=

USA.gov is the U.S. government's official web portal to all federal, state and local government web resources and services.